createdAt,value
2023-02-19T00:01:34.935Z,13865.66
2023-02-19T00:05:36.361Z,13884.03
2023-02-19T00:09:39.094Z,13863.59
2023-02-19T00:13:42.112Z,13869.75
2023-02-19T00:17:43.606Z,13859.53
2023-02-19T00:21:45.134Z,13826.81
2023-02-19T00:25:48.025Z,13877.91
2023-02-19T00:29:49.469Z,13826.81
2023-02-19T00:33:52.881Z,13814.56
2023-02-19T00:37:54.347Z,13783.91
2023-02-19T00:41:57.079Z,13779.81
2023-02-19T00:45:58.571Z,13734.88
2023-02-19T00:50:07.058Z,13765.50
2023-02-19T00:54:08.465Z,13781.88
2023-02-19T00:58:11.277Z,13759.38
2023-02-19T01:02:12.695Z,13749.16
2023-02-19T01:06:16.855Z,13788.00
2023-02-19T01:10:18.354Z,13745.09
2023-02-19T01:14:21.153Z,13734.88
2023-02-19T01:18:22.522Z,13704.22
2023-02-19T01:22:24.085Z,13743.03
2023-02-19T01:26:28.350Z,13716.47
2023-02-19T01:30:33.577Z,13718.50
2023-02-19T01:34:35.697Z,13714.44
2023-02-19T01:38:37.258Z,13718.50
2023-02-19T01:42:42.571Z,13714.44
2023-02-19T01:46:45.912Z,13722.59
2023-02-19T01:50:51.569Z,13724.66
2023-02-19T01:54:54.268Z,13722.59
2023-02-19T01:58:55.939Z,13728.72
2023-02-19T02:03:00.479Z,13720.56
2023-02-19T02:07:04.356Z,13720.56
2023-02-19T02:11:05.998Z,13730.78
2023-02-19T02:15:08.219Z,13732.81
2023-02-19T02:19:29.860Z,13724.66
2023-02-19T02:23:46.166Z,13720.56
2023-02-19T02:27:56.132Z,13749.16
2023-02-19T02:32:04.020Z,13708.28
2023-02-19T02:36:08.719Z,13730.78
2023-02-19T02:40:11.870Z,13722.59
2023-02-19T02:44:13.513Z,13700.13
2023-02-19T02:48:25.692Z,13700.13
2023-02-19T02:52:27.237Z,13704.22
2023-02-19T02:56:29.970Z,13708.28
2023-02-19T03:00:33.845Z,13671.50
2023-02-19T03:04:45.576Z,13708.28
2023-02-19T03:08:52.698Z,13696.03
2023-02-19T03:12:56.342Z,13663.34
2023-02-19T03:17:03.151Z,13677.66
2023-02-19T03:21:07.054Z,13671.50
2023-02-19T03:25:12.128Z,13679.69
2023-02-19T03:29:14.454Z,13663.34
2023-02-19T03:33:20.487Z,13653.13
2023-02-19T03:37:29.102Z,13683.78
2023-02-19T03:41:36.608Z,13659.25
2023-02-19T03:45:46.276Z,13653.13
2023-02-19T03:49:53.455Z,13671.50
2023-02-19T03:54:08.537Z,13671.50
2023-02-19T03:58:16.105Z,13663.34
2023-02-19T04:02:25.773Z,13649.03
2023-02-19T04:06:29.074Z,13669.47
2023-02-19T04:10:32.474Z,13651.09
2023-02-19T04:14:39.195Z,13642.91
2023-02-19T04:18:43.414Z,13653.13
2023-02-19T04:22:44.979Z,13655.16
2023-02-19T04:26:47.967Z,13667.44
2023-02-19T04:30:49.571Z,13640.88
2023-02-19T04:34:53.340Z,13708.28
2023-02-19T04:38:55.752Z,13716.47
2023-02-19T04:42:58.557Z,13716.47
2023-02-19T04:47:00.522Z,13708.28
2023-02-19T04:51:05.574Z,13675.59
2023-02-19T04:55:08.279Z,13655.16
2023-02-19T04:59:11.068Z,13675.59
2023-02-19T05:03:12.541Z,13634.72
2023-02-19T05:07:14.231Z,13636.78
2023-02-19T05:11:15.949Z,13653.13
2023-02-19T05:15:18.772Z,13642.91
2023-02-19T05:19:20.300Z,13636.78
2023-02-19T05:23:21.818Z,13655.16
2023-02-19T05:27:23.255Z,13630.66
2023-02-19T05:31:26.131Z,13687.88
2023-02-19T05:35:27.598Z,13622.47
2023-02-19T05:39:29.049Z,13636.78
2023-02-19T05:43:30.468Z,13634.72
2023-02-19T05:47:33.309Z,13630.66
2023-02-19T05:51:34.605Z,13600.00
2023-02-19T05:55:36.466Z,13614.31
2023-02-19T05:59:37.883Z,13606.13
2023-02-19T06:03:40.702Z,13557.09
2023-02-19T06:07:42.133Z,13602.03
2023-02-19T06:11:43.816Z,13591.81
2023-02-19T06:15:45.402Z,13616.34
2023-02-19T06:19:48.177Z,13589.78
2023-02-19T06:23:49.639Z,13585.69
2023-02-19T06:27:51.072Z,13569.34
2023-02-19T06:31:52.654Z,13593.88
2023-02-19T06:36:00.514Z,13600.00
2023-02-19T06:40:01.902Z,13577.50
2023-02-19T06:44:03.702Z,13626.56
2023-02-19T06:48:05.642Z,13610.22
2023-02-19T06:52:08.456Z,13595.91
2023-02-19T06:56:22.975Z,13628.59
2023-02-19T07:00:24.617Z,13640.88
2023-02-19T07:04:26.128Z,13624.50
2023-02-19T07:08:29.736Z,13604.09
2023-02-19T07:12:31.187Z,13591.81
2023-02-19T07:16:32.872Z,13573.44
2023-02-19T07:20:34.294Z,13506.00
2023-02-19T07:24:37.081Z,13548.91
2023-02-19T07:28:40.073Z,13550.94
2023-02-19T07:32:41.745Z,13483.53
2023-02-19T07:36:43.128Z,13487.59
2023-02-19T07:40:51.935Z,13469.22
2023-02-19T07:44:53.402Z,13499.88
2023-02-19T07:48:54.774Z,13485.56
2023-02-19T07:52:56.179Z,13487.59
2023-02-19T07:56:59.029Z,13479.44
2023-02-19T08:01:07.400Z,13477.38
2023-02-19T08:05:08.878Z,13463.09
2023-02-19T08:09:10.462Z,13495.78
2023-02-19T08:13:15.140Z,13510.09
2023-02-19T08:17:16.534Z,13495.78
2023-02-19T08:21:17.930Z,13491.69
2023-02-19T08:25:19.286Z,13524.38
2023-02-19T08:29:22.001Z,13565.25
2023-02-19T08:33:23.475Z,13612.25
2023-02-19T08:37:24.872Z,13581.59
2023-02-19T08:41:26.373Z,13642.91
2023-02-19T08:45:29.169Z,13622.47
2023-02-19T08:49:30.598Z,13610.22
2023-02-19T08:53:32.978Z,13638.81
2023-02-19T08:57:36.001Z,13634.72
2023-02-19T09:01:38.825Z,13675.59
2023-02-19T09:05:40.590Z,13663.34
2023-02-19T09:09:42.048Z,13700.13
2023-02-19T09:13:44.078Z,13743.03
2023-02-19T09:17:51.125Z,13720.56
2023-02-19T09:26:21.838Z,13785.94
2023-02-19T09:30:29.183Z,13771.66
2023-02-19T09:34:31.948Z,13763.47
2023-02-19T09:38:33.349Z,13714.44
2023-02-19T09:42:34.752Z,13704.22
2023-02-19T09:46:41.791Z,13700.13
2023-02-19T09:50:48.456Z,13728.72
2023-02-19T09:54:50.699Z,13681.72
2023-02-19T09:58:56.498Z,13687.88
2023-02-19T10:03:04.665Z,13698.09
2023-02-19T10:07:12.376Z,13747.13
2023-02-19T10:11:14.515Z,13753.25
2023-02-19T10:15:20.174Z,13751.22
2023-02-19T10:19:21.570Z,13753.25
2023-02-19T10:23:25.429Z,13759.38
2023-02-19T10:27:29.709Z,13747.13
2023-02-19T10:31:33.287Z,13767.56
2023-02-19T10:35:37.778Z,13716.47
2023-02-19T10:39:43.501Z,13751.22
2023-02-19T10:43:53.283Z,13753.25
2023-02-19T10:47:54.786Z,13749.16
2023-02-19T10:52:00.615Z,13745.09
2023-02-19T10:56:09.318Z,13751.22
2023-02-19T11:00:20.953Z,13808.44
2023-02-19T11:04:22.610Z,13814.56
2023-02-19T11:08:24.545Z,13828.88
2023-02-19T11:12:29.610Z,13892.22
2023-02-19T11:16:40.603Z,13902.44
2023-02-19T11:20:48.283Z,13859.53
2023-02-19T11:24:55.699Z,13867.69
2023-02-19T11:29:01.391Z,13900.38
2023-02-19T11:33:26.333Z,13863.59
2023-02-19T11:37:27.708Z,13892.22
2023-02-19T11:42:00.547Z,13884.03
2023-02-19T11:46:09.564Z,13861.56
2023-02-19T11:50:23.095Z,13888.13
2023-02-19T11:54:45.856Z,13924.91
2023-02-19T11:58:58.518Z,13953.53
2023-02-19T12:03:24.929Z,13945.34
2023-02-19T12:07:46.339Z,13982.13
2023-02-19T12:12:04.389Z,13929.00
2023-02-19T12:16:22.601Z,13953.53
2023-02-19T12:20:34.660Z,14023.00
2023-02-19T12:25:02.651Z,14010.75
2023-02-19T12:29:22.750Z,14031.19
2023-02-19T12:33:43.408Z,14047.53
2023-02-19T12:37:52.699Z,14086.38
2023-02-19T12:42:04.753Z,14076.16
2023-02-19T12:46:12.597Z,14037.31
2023-02-19T12:50:19.966Z,13996.44
2023-02-19T12:54:26.847Z,14002.56
2023-02-19T12:58:35.124Z,13988.28
2023-02-19T13:02:44.181Z,13998.47
2023-02-19T13:06:52.770Z,13965.78
2023-02-19T13:11:00.433Z,13894.25
2023-02-19T13:15:14.954Z,13828.88
2023-02-19T13:19:16.348Z,13818.66
2023-02-19T13:23:23.662Z,13808.44
2023-02-19T13:27:41.742Z,13794.13
2023-02-19T13:32:19.701Z,13814.56
2023-02-19T13:36:25.742Z,13808.44
2023-02-19T13:40:31.574Z,13802.31
2023-02-19T13:44:35.354Z,13800.25
2023-02-19T13:48:38.608Z,13794.13
2023-02-19T13:52:42.916Z,13814.56
2023-02-19T13:56:44.407Z,13810.47
2023-02-19T14:00:51.873Z,13851.34
2023-02-19T14:04:56.125Z,13806.38
2023-02-19T14:08:58.471Z,13851.34
2023-02-19T14:12:59.899Z,13855.44
2023-02-19T14:17:05.079Z,13820.69
2023-02-19T14:21:15.249Z,13851.34
2023-02-19T14:25:49.555Z,13863.59
2023-02-19T14:29:52.228Z,13841.13
2023-02-19T14:33:56.979Z,13859.53
2023-02-19T14:37:58.732Z,13861.56
2023-02-19T14:42:02.667Z,13849.31
2023-02-19T14:46:09.167Z,13861.56
2023-02-19T14:50:17.473Z,13847.25
2023-02-19T14:54:21.755Z,13863.59
2023-02-19T14:58:26.108Z,13863.59
2023-02-19T15:02:29.385Z,13871.78
2023-02-19T15:06:34.309Z,13867.69
2023-02-19T15:10:36.449Z,13871.78
2023-02-19T15:14:39.674Z,13837.03
2023-02-19T15:18:45.050Z,13886.09
2023-02-19T15:22:47.852Z,13857.47
2023-02-19T15:26:54.485Z,13882.00
2023-02-19T15:31:04.774Z,13855.44
2023-02-19T15:35:06.770Z,13890.19
2023-02-19T15:39:24.360Z,13888.13
2023-02-19T15:43:37.688Z,13904.47
2023-02-19T15:47:54.686Z,13937.19
2023-02-19T15:52:00.175Z,13906.53
2023-02-19T15:56:09.130Z,13957.63
2023-02-19T16:00:16.257Z,13922.88
2023-02-19T16:08:35.870Z,13949.44
2023-02-19T16:12:40.325Z,13933.09
2023-02-19T16:16:42.944Z,13939.22
2023-02-19T16:20:47.558Z,13906.53
2023-02-19T16:24:51.923Z,13912.66
2023-02-19T16:28:55.392Z,13929.00
2023-02-19T16:33:32.880Z,13933.09
2023-02-19T16:37:36.968Z,13937.19
2023-02-19T16:42:09.284Z,13947.41
2023-02-19T16:46:12.917Z,13953.53
2023-02-19T16:50:16.045Z,13955.56
2023-02-19T16:54:17.435Z,13918.78
2023-02-19T16:58:19.036Z,13920.81
2023-02-19T17:02:24.162Z,13920.81
2023-02-19T17:06:25.811Z,13924.91
2023-02-19T17:10:27.928Z,13916.75
2023-02-19T17:14:29.330Z,13914.69
2023-02-19T17:18:32.252Z,13929.00
2023-02-19T17:22:33.628Z,13920.81
2023-02-19T17:26:35.167Z,13918.78
2023-02-19T17:30:38.868Z,13971.91
2023-02-19T17:34:45.026Z,13996.44
2023-02-19T17:38:47.014Z,14002.56
2023-02-19T17:42:48.575Z,13961.69
2023-02-19T17:46:50.041Z,13973.97
2023-02-19T17:50:52.835Z,13965.78
2023-02-19T17:54:54.214Z,13980.09
2023-02-19T17:58:56.734Z,14010.75
2023-02-19T18:02:58.429Z,13998.47
2023-02-19T18:07:01.147Z,13982.13
2023-02-19T18:11:02.798Z,14014.84
2023-02-19T18:15:05.035Z,13986.22
2023-02-19T18:19:07.270Z,14000.53
2023-02-19T18:23:10.028Z,14016.88
2023-02-19T18:27:18.241Z,14014.84
2023-02-19T18:31:19.759Z,14006.66
2023-02-19T18:35:21.370Z,14031.19
2023-02-19T18:39:24.116Z,14014.84
2023-02-19T18:43:25.537Z,13978.06
2023-02-19T18:47:26.926Z,14014.84
2023-02-19T18:51:28.321Z,14014.84
2023-02-19T18:55:31.084Z,14023.00
2023-02-19T18:59:32.782Z,14029.13
2023-02-19T19:03:34.193Z,14010.75
2023-02-19T19:07:35.705Z,13994.41
2023-02-19T19:11:38.923Z,14006.66
2023-02-19T19:15:40.323Z,13978.06
2023-02-19T19:19:43.062Z,14000.53
2023-02-19T19:23:44.884Z,14020.97
2023-02-19T19:27:47.603Z,14010.75
2023-02-19T19:31:49.766Z,14031.19
2023-02-19T19:35:51.562Z,13998.47
2023-02-19T19:39:53.051Z,14033.22
2023-02-19T19:43:56.214Z,14018.91
2023-02-19T19:47:57.628Z,14010.75
2023-02-19T19:51:59.148Z,14020.97
2023-02-19T19:56:00.732Z,14041.41
2023-02-19T20:00:04.722Z,14023.00
2023-02-19T20:04:06.193Z,14004.63
2023-02-19T20:08:07.568Z,14029.13
2023-02-19T20:12:08.986Z,14027.09
2023-02-19T20:16:11.708Z,14035.28
2023-02-19T20:20:13.415Z,14014.84
2023-02-19T20:24:15.741Z,14012.78
2023-02-19T20:28:17.108Z,14039.34
2023-02-19T20:32:19.953Z,14037.31
2023-02-19T20:36:21.358Z,14057.75
2023-02-19T20:40:22.864Z,14041.41
2023-02-19T20:44:25.084Z,14088.41
2023-02-19T20:48:28.006Z,14059.78
2023-02-19T20:52:29.458Z,14070.00
2023-02-19T20:56:30.918Z,14100.66
2023-02-19T21:00:32.326Z,14065.94
2023-02-19T21:04:37.435Z,14047.53
2023-02-19T21:08:38.798Z,14047.53
2023-02-19T21:12:40.176Z,14047.53
2023-02-19T21:16:41.627Z,14049.56
2023-02-19T21:20:46.708Z,14043.44
2023-02-19T21:24:49.656Z,14080.22
2023-02-19T21:28:51.305Z,14086.38
2023-02-19T21:32:52.691Z,14065.94
2023-02-19T21:36:56.155Z,14057.75
2023-02-19T21:40:57.536Z,14041.41
2023-02-19T21:44:59.920Z,14045.50
2023-02-19T21:49:01.946Z,14045.50
2023-02-19T21:53:04.703Z,14059.78
2023-02-19T21:57:06.086Z,14033.22
2023-02-19T22:01:07.521Z,14039.34
2023-02-19T22:05:09.754Z,14031.19
2023-02-19T22:09:13.845Z,14025.06
2023-02-19T22:13:15.602Z,14006.66
2023-02-19T22:17:16.935Z,14031.19
2023-02-19T22:21:19.696Z,14047.53
2023-02-19T22:25:22.666Z,14014.84
2023-02-19T22:29:24.790Z,14014.84
2023-02-19T22:33:26.171Z,14014.84
2023-02-19T22:37:27.534Z,14014.84
2023-02-19T22:41:30.687Z,14012.78
2023-02-19T22:45:32.710Z,14023.00
2023-02-19T22:49:37.507Z,13998.47
2023-02-19T22:53:43.419Z,14002.56
2023-02-19T22:57:46.138Z,13994.41
2023-02-19T23:01:47.983Z,13986.22
2023-02-19T23:05:49.364Z,14008.69
2023-02-19T23:09:50.782Z,14014.84
2023-02-19T23:13:54.075Z,14016.88
2023-02-19T23:17:55.708Z,13990.31
2023-02-19T23:21:57.197Z,14006.66
2023-02-19T23:25:58.637Z,13986.22
2023-02-19T23:30:01.367Z,13955.56
2023-02-19T23:34:02.809Z,13980.09
2023-02-19T23:38:04.186Z,13994.41
2023-02-19T23:42:05.695Z,13988.28
2023-02-19T23:46:09.642Z,13990.31
2023-02-19T23:50:11.234Z,13973.97
2023-02-19T23:54:12.633Z,13973.97
2023-02-19T23:58:14.567Z,14014.84
